createdAt,value
2022-12-23T00:01:02.285Z,85.48
2022-12-23T00:05:01.687Z,85.56
2022-12-23T00:09:01.645Z,85.78
2022-12-23T00:13:20.318Z,85.89
2022-12-23T00:17:23.275Z,85.93
2022-12-23T00:21:23.601Z,85.94
2022-12-23T00:25:40.412Z,86.01
2022-12-23T00:29:40.336Z,86.06
2022-12-23T00:33:42.508Z,86.10
2022-12-23T00:37:41.909Z,86.20
2022-12-23T00:42:04.378Z,86.30
2022-12-23T00:45:19.376Z,86.40
2022-12-23T00:59:52.174Z,86.80
2022-12-23T01:03:10.500Z,86.96
2022-12-23T01:07:09.984Z,87.07
2022-12-23T01:11:11.009Z,87.06
2022-12-23T01:15:10.928Z,87.04
2022-12-23T01:19:10.618Z,87.03
2022-12-23T01:23:09.824Z,87.05
2022-12-23T01:27:09.014Z,87.11
2022-12-23T01:31:09.781Z,87.10
2022-12-23T01:35:09.229Z,87.09
2022-12-23T01:39:08.314Z,87.08
2022-12-23T01:43:22.618Z,87.09
2022-12-23T01:47:34.594Z,87.15
2022-12-23T01:51:33.319Z,87.22
2022-12-23T01:55:35.835Z,87.23
2022-12-23T01:59:54.613Z,87.32
2022-12-23T02:03:56.153Z,87.37
2022-12-23T02:08:14.899Z,87.41
2022-12-23T02:12:33.323Z,87.42
2022-12-23T02:16:50.584Z,87.51
2022-12-23T02:20:52.856Z,87.55
2022-12-23T02:24:57.819Z,87.64
2022-12-23T02:29:13.775Z,87.76
2022-12-23T02:33:31.478Z,87.92
2022-12-23T02:37:57.103Z,88.07
2022-12-23T02:42:12.003Z,88.29
2022-12-23T02:46:11.415Z,88.51
2022-12-23T02:50:29.038Z,88.43
2022-12-23T02:54:26.258Z,88.52
2022-12-23T02:57:44.294Z,88.50
2022-12-23T03:02:02.722Z,88.54
2022-12-23T03:05:27.805Z,88.50
2022-12-23T03:09:27.752Z,88.44
2022-12-23T03:13:33.062Z,88.45
2022-12-23T03:17:54.350Z,88.41
2022-12-23T03:21:14.959Z,88.39
2022-12-23T03:25:17.580Z,88.34
2022-12-23T03:29:24.571Z,88.32
2022-12-23T03:33:38.173Z,88.30
2022-12-23T03:37:39.152Z,88.29
2022-12-23T03:41:44.762Z,88.26
2022-12-23T03:45:59.621Z,88.26
2022-12-23T03:50:02.994Z,88.36
2022-12-23T03:54:25.703Z,88.44
2022-12-23T03:57:58.913Z,88.41
2022-12-23T04:02:24.423Z,88.43
2022-12-23T04:05:40.775Z,88.44
2022-12-23T04:09:40.893Z,88.41
2022-12-23T04:13:40.683Z,88.45
2022-12-23T04:17:40.118Z,88.48
2022-12-23T04:21:39.934Z,88.47
2022-12-23T04:25:38.950Z,88.42
2022-12-23T04:29:39.056Z,88.38
2022-12-23T04:33:52.062Z,88.36
2022-12-23T04:37:51.071Z,88.34
2022-12-23T04:41:50.040Z,88.34
2022-12-23T04:45:52.365Z,88.34
2022-12-23T04:49:51.803Z,88.32
2022-12-23T04:54:09.836Z,88.37
2022-12-23T04:57:28.623Z,88.38
2022-12-23T05:01:29.266Z,88.34
2022-12-23T05:05:28.677Z,88.32
2022-12-23T05:09:28.114Z,88.37
2022-12-23T05:13:27.134Z,88.44
2022-12-23T05:17:40.195Z,88.50
2022-12-23T05:21:40.027Z,88.58
2022-12-23T05:25:40.075Z,88.60
2022-12-23T05:29:39.592Z,88.64
2022-12-23T05:33:39.666Z,88.68
2022-12-23T05:37:38.571Z,88.67
2022-12-23T05:41:38.079Z,88.66
2022-12-23T05:45:38.260Z,88.67
2022-12-23T05:49:37.389Z,88.64
2022-12-23T05:53:36.592Z,88.63
2022-12-23T05:57:36.643Z,88.62
2022-12-23T06:01:36.321Z,88.59
2022-12-23T06:05:37.916Z,88.58
2022-12-23T06:09:50.595Z,88.55
2022-12-23T06:13:50.183Z,88.56
2022-12-23T06:17:49.654Z,88.56
2022-12-23T06:21:48.987Z,88.58
2022-12-23T06:25:48.153Z,88.57
2022-12-23T06:29:48.191Z,88.56
2022-12-23T06:33:47.352Z,88.57
2022-12-23T06:38:10.274Z,88.62
2022-12-23T06:41:24.175Z,88.73
2022-12-23T06:45:45.456Z,88.89
2022-12-23T06:49:00.601Z,88.83
2022-12-23T06:53:18.868Z,88.86
2022-12-23T06:56:37.382Z,88.85
2022-12-23T07:00:36.738Z,88.81
2022-12-23T07:04:35.573Z,88.78
2022-12-23T07:08:53.658Z,88.70
2022-12-23T07:12:31.087Z,88.69
2022-12-23T07:15:50.260Z,88.66
2022-12-23T07:19:49.801Z,88.67
2022-12-23T07:23:49.645Z,88.58
2022-12-23T07:27:52.840Z,88.49
2022-12-23T07:32:11.309Z,88.36
2022-12-23T07:35:30.033Z,88.24
2022-12-23T07:39:29.400Z,87.86
2022-12-23T07:43:47.454Z,87.50
2022-12-23T07:47:06.333Z,87.34
2022-12-23T07:51:24.143Z,87.69
2022-12-23T07:54:43.741Z,86.52
2022-12-23T07:58:20.616Z,83.82
2022-12-23T08:02:25.507Z,82.81
2022-12-23T08:06:02.155Z,82.96
2022-12-23T08:10:01.953Z,83.15
2022-12-23T08:14:01.471Z,83.22
2022-12-23T08:18:01.025Z,83.43
2022-12-23T08:22:18.770Z,83.62
2022-12-23T08:25:37.994Z,83.74
2022-12-23T08:29:36.830Z,83.65
2022-12-23T08:33:37.043Z,83.30
2022-12-23T08:37:36.357Z,82.73
2022-12-23T08:41:55.653Z,81.97
2022-12-23T08:45:13.362Z,82.28
2022-12-23T08:49:26.284Z,82.90
2022-12-23T08:53:25.131Z,83.10
2022-12-23T08:57:38.032Z,83.33
2022-12-23T09:01:50.914Z,83.59
2022-12-23T09:05:50.607Z,83.49
2022-12-23T09:09:49.937Z,83.76
2022-12-23T09:14:21.676Z,83.95
2022-12-23T09:17:40.535Z,84.05
2022-12-23T09:21:39.447Z,84.04
2022-12-23T09:26:16.506Z,83.98
2022-12-23T09:29:30.112Z,83.97
2022-12-23T09:33:29.477Z,83.85
2022-12-23T09:37:47.415Z,83.58
2022-12-23T09:41:15.218Z,83.50
2022-12-23T09:45:14.293Z,83.63
2022-12-23T09:53:40.263Z,83.57
2022-12-23T09:57:50.296Z,83.99
2022-12-23T10:01:59.509Z,84.74
2022-12-23T10:06:18.534Z,85.34
2022-12-23T10:10:23.012Z,85.57
2022-12-23T10:14:25.586Z,85.84
2022-12-23T10:18:28.192Z,86.02
2022-12-23T10:22:43.341Z,86.04
2022-12-23T10:27:00.816Z,86.06
2022-12-23T10:34:43.336Z,86.06
2022-12-23T10:38:45.575Z,86.05
2022-12-23T10:42:44.616Z,85.89
2022-12-23T10:47:13.582Z,85.62
2022-12-23T10:51:22.333Z,85.88
2022-12-23T10:55:33.786Z,85.61
2022-12-23T10:59:35.438Z,85.18
2022-12-23T11:03:41.482Z,85.31
2022-12-23T11:12:06.916Z,86.01
2022-12-23T11:16:12.376Z,86.32
2022-12-23T11:20:20.429Z,86.18
2022-12-23T11:24:21.121Z,86.36
2022-12-23T11:28:22.375Z,86.70
2022-12-23T11:32:26.026Z,86.84
2022-12-23T11:36:54.702Z,87.12
2022-12-23T11:40:07.675Z,87.16
2022-12-23T11:44:12.239Z,87.22
2022-12-23T11:48:30.955Z,87.28
2022-12-23T11:52:31.458Z,87.45
2022-12-23T11:56:39.826Z,87.56
2022-12-23T12:00:41.881Z,87.60
2022-12-23T12:04:43.442Z,87.75
2022-12-23T12:08:43.687Z,87.94
2022-12-23T12:12:43.243Z,88.04
2022-12-23T12:16:54.365Z,88.08
2022-12-23T12:20:55.841Z,88.04
2022-12-23T12:24:57.183Z,88.20
2022-12-23T12:29:15.280Z,88.29
2022-12-23T12:33:19.555Z,88.35
2022-12-23T12:37:23.006Z,88.45
2022-12-23T12:41:22.409Z,88.55
2022-12-23T12:45:22.965Z,88.64
2022-12-23T12:49:42.173Z,88.66
2022-12-23T12:54:05.680Z,88.71
2022-12-23T12:58:08.362Z,88.41
2022-12-23T13:02:40.231Z,88.38
2022-12-23T13:06:58.881Z,88.44
2022-12-23T13:10:57.918Z,88.57
2022-12-23T13:15:10.832Z,88.69
2022-12-23T13:19:28.924Z,88.81
2022-12-23T13:23:47.450Z,88.87
2022-12-23T13:28:13.023Z,88.97
2022-12-23T13:32:14.920Z,89.02
2022-12-23T13:36:53.759Z,89.08
2022-12-23T13:39:54.534Z,89.09
2022-12-23T13:44:06.566Z,89.09
2022-12-23T13:48:24.566Z,89.05
2022-12-23T13:52:43.921Z,89.06
2022-12-23T17:44:49.456Z,88.05
2022-12-23T17:48:49.118Z,88.08
2022-12-23T17:53:02.263Z,88.11
2022-12-23T17:57:01.406Z,88.14
2022-12-23T18:01:01.117Z,88.17
2022-12-23T18:05:02.482Z,88.26
2022-12-23T18:09:01.454Z,88.24
2022-12-23T18:13:02.257Z,88.24
2022-12-23T18:17:01.648Z,88.18
2022-12-23T18:21:00.866Z,88.16
2022-12-23T18:25:00.293Z,88.16
2022-12-23T18:28:59.641Z,88.16
2022-12-23T18:32:59.262Z,88.17
2022-12-23T18:36:59.301Z,88.16
2022-12-23T18:40:59.113Z,88.10
2022-12-23T18:44:58.989Z,88.01
2022-12-23T18:48:58.890Z,87.95
2022-12-23T18:53:25.137Z,87.92
2022-12-23T18:57:24.443Z,87.87
2022-12-23T19:01:23.535Z,87.82
2022-12-23T19:05:30.373Z,87.81
2022-12-23T19:09:29.822Z,87.73
2022-12-23T19:13:42.966Z,87.64
2022-12-23T19:17:42.539Z,87.59
2022-12-23T19:21:41.847Z,87.13
2022-12-23T19:25:55.619Z,86.67
2022-12-23T19:29:55.221Z,86.66
2022-12-23T19:33:54.620Z,86.62
2022-12-23T19:38:08.325Z,86.46
2022-12-23T19:42:08.404Z,86.49
2022-12-23T19:46:08.899Z,86.51
2022-12-23T19:50:08.762Z,86.51
2022-12-23T19:54:08.239Z,86.63
2022-12-23T19:58:07.524Z,86.62
2022-12-23T20:02:07.059Z,86.63
2022-12-23T20:06:22.259Z,86.65
2022-12-23T20:10:21.850Z,86.63
2022-12-23T20:14:22.008Z,86.64
2022-12-23T20:18:23.773Z,86.73
2022-12-23T20:21:59.492Z,86.69
2022-12-23T20:25:59.944Z,86.70
2022-12-23T20:29:59.663Z,86.72
2022-12-23T20:33:59.272Z,86.79
2022-12-23T20:37:59.094Z,86.77
2022-12-23T20:41:58.160Z,86.76
2022-12-23T20:45:57.205Z,86.78
2022-12-23T20:49:56.659Z,86.74
2022-12-23T20:53:59.976Z,86.71
2022-12-23T20:58:19.469Z,86.67
2022-12-23T21:02:18.626Z,86.66
2022-12-23T21:06:18.766Z,86.66
2022-12-23T21:10:20.974Z,86.64
2022-12-23T21:14:01.144Z,86.68
2022-12-23T21:18:04.138Z,86.65
2022-12-23T21:22:04.060Z,86.62
2022-12-23T21:26:18.601Z,86.61
2022-12-23T21:30:18.247Z,86.62
2022-12-23T21:34:18.086Z,86.58
2022-12-23T21:38:18.868Z,86.53
2022-12-23T21:41:55.473Z,86.48
2022-12-23T21:46:11.928Z,86.46
2022-12-23T21:50:11.834Z,86.42
2022-12-23T21:54:12.252Z,86.45
2022-12-23T21:58:12.074Z,86.51
2022-12-23T22:02:17.736Z,86.54
2022-12-23T22:06:21.628Z,86.57
2022-12-23T22:10:20.975Z,86.61
2022-12-23T22:14:20.886Z,86.62
2022-12-23T22:18:20.005Z,86.59
2022-12-23T22:22:19.518Z,86.65
2022-12-23T22:26:25.489Z,87.34
2022-12-23T22:30:39.232Z,86.79
2022-12-23T22:34:39.132Z,86.64
2022-12-23T22:38:38.351Z,86.61
2022-12-23T22:42:37.378Z,86.58
2022-12-23T22:46:50.352Z,86.58
2022-12-23T22:50:49.581Z,86.58
2022-12-23T22:54:49.068Z,86.60
2022-12-23T22:58:48.577Z,86.60
2022-12-23T23:02:48.273Z,86.64
2022-12-23T23:06:47.866Z,86.65
2022-12-23T23:10:47.152Z,86.67
2022-12-23T23:15:00.916Z,86.69
2022-12-23T23:19:01.271Z,86.69
2022-12-23T23:23:00.819Z,86.66
2022-12-23T23:27:00.298Z,86.64
2022-12-23T23:31:31.859Z,86.62
2022-12-23T23:35:19.536Z,86.58
2022-12-23T23:39:18.973Z,86.55
2022-12-23T23:43:18.638Z,86.53
2022-12-23T23:47:18.215Z,86.55
2022-12-23T23:51:18.484Z,86.56
2022-12-23T23:55:18.082Z,86.56
2022-12-23T23:59:17.497Z,86.52
